createdAt,value
2023-03-25T00:00:15.441Z,11.93
2023-03-25T00:04:17.641Z,11.85
2023-03-25T00:08:19.290Z,11.82
2023-03-25T00:12:21.029Z,11.78
2023-03-25T00:16:22.630Z,11.72
2023-03-25T00:20:24.181Z,11.72
2023-03-25T00:24:25.996Z,11.72
2023-03-25T00:28:30.812Z,11.67
2023-03-25T00:32:33.022Z,11.62
2023-03-25T00:36:37.609Z,11.59
2023-03-25T00:40:40.070Z,11.54
2023-03-25T00:44:41.972Z,11.56
2023-03-25T00:48:43.728Z,11.51
2023-03-25T00:52:45.461Z,11.51
2023-03-25T00:56:47.211Z,11.48
2023-03-25T01:00:49.594Z,11.45
2023-03-25T01:04:51.517Z,11.42
2023-03-25T01:08:53.230Z,11.41
2023-03-25T01:12:54.751Z,11.36
2023-03-25T01:16:59.109Z,11.28
2023-03-25T01:21:02.152Z,11.33
2023-03-25T01:25:04.079Z,11.33
2023-03-25T01:29:05.826Z,11.35
2023-03-25T01:33:08.174Z,11.39
2023-03-25T01:37:10.008Z,11.44
2023-03-25T01:41:11.547Z,11.41
2023-03-25T01:45:15.185Z,11.38
2023-03-25T01:49:23.438Z,11.31
2023-03-25T01:53:28.675Z,10.78
2023-03-25T01:57:31.439Z,10.32
2023-03-25T02:01:34.210Z,10.22
2023-03-25T02:06:02.788Z,10.14
2023-03-25T02:10:07.698Z,10.14
2023-03-25T02:14:16.393Z,10.18
2023-03-25T02:18:31.885Z,10.18
2023-03-25T02:22:47.645Z,10.29
2023-03-25T02:26:59.766Z,10.28
2023-03-25T02:31:22.588Z,10.28
2023-03-25T02:35:43.604Z,10.28
2023-03-25T02:40:08.578Z,10.29
2023-03-25T02:45:00.214Z,10.34
2023-03-25T02:49:16.173Z,10.36
2023-03-25T02:53:28.076Z,10.29
2023-03-25T02:57:32.811Z,10.25
2023-03-25T03:01:36.283Z,10.32
2023-03-25T03:05:42.810Z,10.26
2023-03-25T03:09:49.773Z,10.29
2023-03-25T03:14:00.673Z,10.24
2023-03-25T03:18:13.211Z,10.32
2023-03-25T03:22:36.218Z,10.34
2023-03-25T03:26:50.016Z,10.25
2023-03-25T03:31:06.730Z,10.25
2023-03-25T03:35:32.377Z,10.25
2023-03-25T03:39:38.268Z,10.22
2023-03-25T03:43:54.633Z,10.24
2023-03-25T03:47:59.514Z,10.24
2023-03-25T03:52:17.052Z,10.22
2023-03-25T03:56:22.409Z,10.25
2023-03-25T04:00:36.355Z,10.26
2023-03-25T04:04:38.801Z,10.25
2023-03-25T04:08:58.655Z,10.26
2023-03-25T04:13:04.092Z,10.26
2023-03-25T04:17:06.527Z,10.24
2023-03-25T04:21:09.836Z,10.20
2023-03-25T04:25:13.843Z,10.20
2023-03-25T04:29:15.472Z,10.13
2023-03-25T04:33:17.713Z,10.11
2023-03-25T04:37:19.198Z,10.11
2023-03-25T04:41:20.738Z,10.11
2023-03-25T04:45:22.391Z,10.10
2023-03-25T04:49:24.931Z,10.11
2023-03-25T04:53:27.115Z,10.14
2023-03-25T04:57:28.671Z,10.14
2023-03-25T05:01:31.019Z,10.11
2023-03-25T05:05:32.671Z,10.11
2023-03-25T05:09:34.233Z,10.13
2023-03-25T05:13:35.767Z,10.11
2023-03-25T05:17:37.822Z,10.06
2023-03-25T05:21:43.510Z,10.01
2023-03-25T05:25:47.447Z,10.01
2023-03-25T05:29:49.210Z,9.92
2023-03-25T05:33:51.524Z,9.92
2023-03-25T05:37:53.524Z,9.88
2023-03-25T05:41:55.749Z,9.77
2023-03-25T05:45:57.387Z,9.70
2023-03-25T05:50:00.307Z,9.63
2023-03-25T05:54:02.097Z,9.63
2023-03-25T05:58:04.385Z,9.63
2023-03-25T06:02:07.541Z,9.73
2023-03-25T06:06:18.367Z,9.74
2023-03-25T06:10:19.976Z,9.80
2023-03-25T06:14:25.540Z,9.83
2023-03-25T06:18:27.152Z,9.85
2023-03-25T06:22:28.827Z,9.88
2023-03-25T06:26:30.636Z,9.99
2023-03-25T06:30:32.292Z,10.06
2023-03-25T06:34:34.034Z,10.13
2023-03-25T06:38:35.565Z,10.14
2023-03-25T06:42:44.261Z,10.20
2023-03-25T06:46:57.887Z,10.24
2023-03-25T06:51:04.843Z,10.24
2023-03-25T06:55:06.641Z,10.20
2023-03-25T06:59:08.226Z,10.20
2023-03-25T07:03:11.281Z,10.18
2023-03-25T07:07:12.808Z,10.25
2023-03-25T07:11:16.189Z,10.34
2023-03-25T07:15:17.846Z,10.39
2023-03-25T07:19:20.979Z,10.51
2023-03-25T07:23:22.711Z,10.62
2023-03-25T07:27:24.848Z,10.70
2023-03-25T07:31:35.565Z,10.70
2023-03-25T07:35:37.240Z,10.68
2023-03-25T07:39:38.791Z,10.69
2023-03-25T07:43:40.644Z,10.76
2023-03-25T07:48:02.951Z,10.86
2023-03-25T07:52:04.605Z,10.91
2023-03-25T07:56:07.197Z,11.02
2023-03-25T08:00:10.763Z,11.19
2023-03-25T08:04:15.557Z,11.08
2023-03-25T08:08:17.132Z,10.94
2023-03-25T08:12:18.681Z,10.99
2023-03-25T08:16:20.250Z,11.06
2023-03-25T08:20:22.116Z,11.13
2023-03-25T08:24:25.070Z,11.31
2023-03-25T08:28:26.954Z,11.44
2023-03-25T08:32:28.768Z,11.64
2023-03-25T08:36:30.680Z,11.81
2023-03-25T08:40:36.369Z,11.88
2023-03-25T08:44:38.105Z,12.01
2023-03-25T08:48:39.843Z,12.19
2023-03-25T08:52:42.071Z,12.21
2023-03-25T08:56:43.648Z,12.26
2023-03-25T09:00:46.615Z,12.29
2023-03-25T09:04:48.844Z,12.29
2023-03-25T09:08:50.635Z,12.31
2023-03-25T09:12:52.736Z,12.26
2023-03-25T09:16:54.318Z,12.25
2023-03-25T09:20:59.488Z,12.37
2023-03-25T09:25:00.970Z,12.31
2023-03-25T09:29:02.618Z,12.33
2023-03-25T09:33:04.332Z,12.25
2023-03-25T09:37:06.042Z,12.40
2023-03-25T09:41:33.890Z,12.62
2023-03-25T09:45:39.998Z,12.52
2023-03-25T09:49:53.437Z,12.58
2023-03-25T09:54:00.279Z,12.67
2023-03-25T09:58:20.853Z,12.59
2023-03-25T10:02:31.575Z,12.56
2023-03-25T10:07:02.823Z,12.66
2023-03-25T10:11:16.958Z,12.67
2023-03-25T10:15:27.548Z,12.80
2023-03-25T10:19:56.425Z,12.74
2023-03-25T10:24:18.530Z,12.96
2023-03-25T10:28:27.405Z,13.13
2023-03-25T10:32:37.973Z,13.07
2023-03-25T10:36:49.169Z,13.06
2023-03-25T10:40:56.707Z,13.21
2023-03-25T10:44:58.344Z,13.28
2023-03-25T10:49:00.132Z,13.12
2023-03-25T10:53:02.136Z,12.89
2023-03-25T10:57:07.701Z,12.61
2023-03-25T11:01:20.962Z,12.61
2023-03-25T11:05:25.780Z,12.52
2023-03-25T11:09:32.763Z,12.38
2023-03-25T11:13:34.780Z,12.16
2023-03-25T11:17:37.746Z,12.22
2023-03-25T11:21:39.456Z,12.25
2023-03-25T11:25:42.092Z,12.21
2023-03-25T11:29:52.839Z,12.00
2023-03-25T11:34:04.311Z,11.63
2023-03-25T11:38:20.914Z,11.21
2023-03-25T11:42:35.694Z,10.70
2023-03-25T11:46:43.342Z,10.49
2023-03-25T11:50:54.165Z,10.47
2023-03-25T11:54:56.675Z,10.38
2023-03-25T11:59:00.869Z,10.49
2023-03-25T12:03:12.095Z,10.75
2023-03-25T12:07:15.325Z,11.01
2023-03-25T12:11:50.681Z,11.31
2023-03-25T12:16:01.545Z,11.75
2023-03-25T12:20:13.513Z,12.08
2023-03-25T12:24:25.759Z,12.44
2023-03-25T12:28:56.009Z,12.43
2023-03-25T12:33:16.393Z,12.46
2023-03-25T12:37:29.407Z,12.67
2023-03-25T12:41:48.954Z,12.74
2023-03-25T12:46:09.463Z,13.16
2023-03-25T12:50:34.975Z,13.55
2023-03-25T12:55:07.753Z,14.01
2023-03-25T12:59:27.458Z,14.06
2023-03-25T13:03:46.617Z,13.91
2023-03-25T13:07:52.994Z,13.88
2023-03-25T13:11:57.226Z,13.73
2023-03-25T13:16:03.552Z,13.75
2023-03-25T13:20:10.123Z,13.72
2023-03-25T13:24:16.697Z,13.87
2023-03-25T13:28:25.930Z,13.94
2023-03-25T13:32:38.728Z,13.87
2023-03-25T13:36:58.657Z,13.88
2023-03-25T13:41:14.654Z,13.83
2023-03-25T13:45:21.663Z,13.83
2023-03-25T13:49:26.264Z,14.21
2023-03-25T13:53:33.590Z,14.49
2023-03-25T13:57:53.877Z,14.46
2023-03-25T14:02:15.927Z,14.60
2023-03-25T14:06:36.302Z,14.79
2023-03-25T14:11:15.305Z,14.67
2023-03-25T14:15:22.589Z,14.71
2023-03-25T14:19:43.649Z,14.79
2023-03-25T14:23:45.620Z,14.90
2023-03-25T14:27:51.271Z,14.97
2023-03-25T14:32:09.060Z,15.01
2023-03-25T14:36:10.569Z,15.01
2023-03-25T14:41:01.272Z,15.04
2023-03-25T14:45:32.267Z,15.04
2023-03-25T14:49:56.092Z,15.04
2023-03-25T14:54:29.609Z,15.28
2023-03-25T14:58:31.692Z,15.33
2023-03-25T15:02:33.708Z,15.33
2023-03-25T15:06:35.355Z,15.77
2023-03-25T15:10:43.626Z,16.11
2023-03-25T15:14:49.158Z,16.47
2023-03-25T15:18:53.849Z,16.27
2023-03-25T15:23:36.269Z,15.73
2023-03-25T15:27:58.936Z,15.53
2023-03-25T15:32:20.560Z,15.64
2023-03-25T15:36:41.837Z,15.58
2023-03-25T15:41:02.425Z,15.84
2023-03-25T15:45:47.118Z,16.14
2023-03-25T15:50:06.684Z,15.86
2023-03-25T15:54:32.916Z,15.93
2023-03-25T15:58:50.995Z,15.64
2023-03-25T16:03:01.870Z,15.13
2023-03-25T16:07:07.857Z,15.07
2023-03-25T16:11:25.082Z,15.04
2023-03-25T16:15:30.166Z,14.83
2023-03-25T16:19:42.415Z,14.79
2023-03-25T16:23:43.984Z,14.72
2023-03-25T16:27:50.473Z,14.61
2023-03-25T16:31:58.584Z,14.54
2023-03-25T16:36:04.354Z,14.56
2023-03-25T16:40:06.866Z,14.49
2023-03-25T16:44:13.128Z,14.48
2023-03-25T16:48:31.248Z,14.48
2023-03-25T16:52:34.744Z,14.46
2023-03-25T16:56:39.980Z,14.48
2023-03-25T17:00:45.540Z,14.49
2023-03-25T17:04:47.331Z,14.45
2023-03-25T17:08:52.368Z,14.38
2023-03-25T17:13:04.339Z,14.31
2023-03-25T17:17:39.247Z,14.21
2023-03-25T17:22:01.514Z,14.08
2023-03-25T17:26:11.790Z,13.99
2023-03-25T17:30:25.470Z,13.88
2023-03-25T17:34:27.623Z,13.83
2023-03-25T17:38:56.239Z,13.80
2023-03-25T17:42:58.463Z,13.75
2023-03-25T17:47:00.407Z,13.75
2023-03-25T17:51:02.617Z,13.73
2023-03-25T17:55:04.343Z,13.68
2023-03-25T17:59:13.015Z,13.63
2023-03-25T18:03:23.013Z,13.59
2023-03-25T18:07:24.548Z,13.54
2023-03-25T18:11:26.238Z,13.25
2023-03-25T18:15:28.289Z,12.96
2023-03-25T18:19:34.068Z,12.56
2023-03-25T18:23:35.612Z,12.31
2023-03-25T18:27:43.759Z,12.22
2023-03-25T18:31:46.490Z,12.16
2023-03-25T18:35:48.525Z,12.07
2023-03-25T18:39:50.047Z,11.97
2023-03-25T18:43:53.240Z,11.82
2023-03-25T18:47:56.203Z,11.82
2023-03-25T18:51:59.133Z,11.75
2023-03-25T18:56:01.822Z,11.72
2023-03-25T19:00:09.581Z,11.69
2023-03-25T19:04:11.130Z,11.67
2023-03-25T19:08:19.061Z,11.64
2023-03-25T19:12:20.776Z,11.56
2023-03-25T19:16:22.330Z,11.46
2023-03-25T19:20:29.482Z,11.49
2023-03-25T19:24:31.164Z,11.44
2023-03-25T19:28:32.787Z,11.46
2023-03-25T19:32:34.803Z,11.41
2023-03-25T19:36:36.435Z,11.35
2023-03-25T19:40:38.172Z,11.26
2023-03-25T19:44:41.793Z,11.27
2023-03-25T19:48:43.366Z,11.23
2023-03-25T19:52:47.200Z,11.26
2023-03-25T19:56:48.800Z,11.19
2023-03-25T20:00:51.463Z,11.19
2023-03-25T20:04:53.272Z,11.16
2023-03-25T20:08:54.962Z,11.16
2023-03-25T20:12:57.263Z,11.19
2023-03-25T20:16:58.982Z,11.21
2023-03-25T20:21:00.812Z,11.24
2023-03-25T20:25:03.227Z,11.17
2023-03-25T20:29:04.869Z,11.13
2023-03-25T20:33:06.516Z,11.08
2023-03-25T20:37:09.492Z,11.08
2023-03-25T20:41:11.790Z,11.08
2023-03-25T20:45:15.821Z,11.09
2023-03-25T20:49:19.765Z,11.05
2023-03-25T20:53:22.793Z,11.03
2023-03-25T20:57:24.335Z,11.01
2023-03-25T21:01:26.016Z,10.95
2023-03-25T21:05:27.760Z,10.95
2023-03-25T21:09:29.450Z,10.90
2023-03-25T21:13:31.720Z,10.88
2023-03-25T21:17:33.779Z,10.88
2023-03-25T21:21:36.191Z,10.90
2023-03-25T21:25:37.799Z,10.90
2023-03-25T21:29:39.562Z,10.87
2023-03-25T21:33:41.191Z,10.87
2023-03-25T21:37:42.742Z,10.84
2023-03-25T21:41:44.359Z,10.86
2023-03-25T21:45:46.382Z,10.80
2023-03-25T21:49:49.955Z,10.81
2023-03-25T21:53:52.743Z,10.84
2023-03-25T21:57:54.280Z,10.86
2023-03-25T22:01:56.030Z,10.81
2023-03-25T22:05:57.688Z,10.83
2023-03-25T22:09:59.209Z,10.84
2023-03-25T22:14:01.362Z,10.84
2023-03-25T22:18:03.004Z,10.87
2023-03-25T22:22:04.632Z,10.84
2023-03-25T22:26:07.931Z,10.83
2023-03-25T22:30:10.076Z,10.78
2023-03-25T22:34:15.094Z,10.72
2023-03-25T22:38:17.848Z,10.68
2023-03-25T22:42:19.688Z,10.62
2023-03-25T22:46:21.648Z,10.62
2023-03-25T22:50:24.439Z,10.60
2023-03-25T22:54:26.092Z,10.58
2023-03-25T22:58:29.811Z,10.57
2023-03-25T23:02:31.414Z,10.55
2023-03-25T23:06:35.591Z,10.63
2023-03-25T23:10:37.161Z,10.63
2023-03-25T23:14:40.661Z,10.58
2023-03-25T23:18:42.778Z,10.55
2023-03-25T23:22:44.275Z,10.51
2023-03-25T23:26:46.483Z,10.51
2023-03-25T23:30:48.011Z,10.46
2023-03-25T23:34:49.666Z,10.43
2023-03-25T23:38:51.674Z,10.43
2023-03-25T23:42:53.336Z,10.36
2023-03-25T23:46:54.958Z,10.36
2023-03-25T23:50:57.113Z,10.39
2023-03-25T23:54:58.690Z,10.44
2023-03-25T23:59:00.836Z,10.39
